sensor_id;sensor_type;location;lat;lon;timestamp;P1;durP1;ratioP1;P2;durP2;ratioP2
7495;SDS011;3789;47.064;15.482;2023-02-08T00:02:04;28.47;;;15.40;;
7495;SDS011;3789;47.064;15.482;2023-02-08T00:04:31;27.40;;;17.57;;
7495;SDS011;3789;47.064;15.482;2023-02-08T00:06:59;25.30;;;16.47;;
7495;SDS011;3789;47.064;15.482;2023-02-08T00:09:26;28.53;;;16.93;;
7495;SDS011;3789;47.064;15.482;2023-02-08T00:11:53;28.47;;;18.10;;
7495;SDS011;3789;47.064;15.482;2023-02-08T00:14:21;26.47;;;18.03;;
7495;SDS011;3789;47.064;15.482;2023-02-08T00:16:48;26.70;;;17.10;;
7495;SDS011;3789;47.064;15.482;2023-02-08T00:19:15;32.57;;;19.50;;
7495;SDS011;3789;47.064;15.482;2023-02-08T00:21:42;33.10;;;19.23;;
7495;SDS011;3789;47.064;15.482;2023-02-08T00:24:09;33.40;;;20.33;;
7495;SDS011;3789;47.064;15.482;2023-02-08T00:26:37;24.60;;;17.10;;
7495;SDS011;3789;47.064;15.482;2023-02-08T00:29:04;44.90;;;23.17;;
7495;SDS011;3789;47.064;15.482;2023-02-08T00:31:31;48.20;;;25.23;;
7495;SDS011;3789;47.064;15.482;2023-02-08T00:33:58;48.00;;;25.47;;
7495;SDS011;3789;47.064;15.482;2023-02-08T00:36:25;38.37;;;21.37;;
7495;SDS011;3789;47.064;15.482;2023-02-08T00:38:52;38.40;;;21.33;;
7495;SDS011;3789;47.064;15.482;2023-02-08T00:41:20;34.00;;;19.70;;
7495;SDS011;3789;47.064;15.482;2023-02-08T00:43:47;49.20;;;25.70;;
7495;SDS011;3789;47.064;15.482;2023-02-08T00:46:14;47.10;;;25.93;;
7495;SDS011;3789;47.064;15.482;2023-02-08T00:48:41;39.70;;;23.17;;
7495;SDS011;3789;47.064;15.482;2023-02-08T00:51:09;41.13;;;22.27;;
7495;SDS011;3789;47.064;15.482;2023-02-08T00:53:42;30.27;;;18.63;;
7495;SDS011;3789;47.064;15.482;2023-02-08T00:56:11;27.47;;;18.53;;
7495;SDS011;3789;47.064;15.482;2023-02-08T00:58:39;28.97;;;17.97;;
7495;SDS011;3789;47.064;15.482;2023-02-08T01:01:07;32.00;;;17.73;;
7495;SDS011;3789;47.064;15.482;2023-02-08T01:03:37;34.47;;;19.80;;
7495;SDS011;3789;47.064;15.482;2023-02-08T01:06:08;27.80;;;17.50;;
7495;SDS011;3789;47.064;15.482;2023-02-08T01:08:38;27.73;;;17.17;;
7495;SDS011;3789;47.064;15.482;2023-02-08T01:11:07;25.90;;;16.70;;
7495;SDS011;3789;47.064;15.482;2023-02-08T01:13:40;29.17;;;16.67;;
7495;SDS011;3789;47.064;15.482;2023-02-08T01:16:12;22.87;;;14.23;;
7495;SDS011;3789;47.064;15.482;2023-02-08T01:18:59;20.93;;;13.17;;
7495;SDS011;3789;47.064;15.482;2023-02-08T01:21:28;21.67;;;14.47;;
7495;SDS011;3789;47.064;15.482;2023-02-08T01:23:58;21.67;;;14.43;;
7495;SDS011;3789;47.064;15.482;2023-02-08T01:26:26;23.80;;;16.17;;
7495;SDS011;3789;47.064;15.482;2023-02-08T01:28:54;25.33;;;15.57;;
7495;SDS011;3789;47.064;15.482;2023-02-08T01:31:22;23.27;;;15.50;;
7495;SDS011;3789;47.064;15.482;2023-02-08T01:33:55;23.80;;;15.63;;
7495;SDS011;3789;47.064;15.482;2023-02-08T01:36:23;22.83;;;15.30;;
7495;SDS011;3789;47.064;15.482;2023-02-08T01:38:52;19.00;;;15.10;;
7495;SDS011;3789;47.064;15.482;2023-02-08T01:41:23;22.77;;;16.17;;
7495;SDS011;3789;47.064;15.482;2023-02-08T01:46:27;18.33;;;13.90;;
7495;SDS011;3789;47.064;15.482;2023-02-08T01:48:56;22.67;;;15.07;;
7495;SDS011;3789;47.064;15.482;2023-02-08T01:51:29;24.87;;;16.37;;
7495;SDS011;3789;47.064;15.482;2023-02-08T01:53:59;27.13;;;15.17;;
7495;SDS011;3789;47.064;15.482;2023-02-08T01:56:35;29.33;;;17.57;;
7495;SDS011;3789;47.064;15.482;2023-02-08T01:59:06;35.00;;;19.03;;
7495;SDS011;3789;47.064;15.482;2023-02-08T02:01:37;60.77;;;30.43;;
7495;SDS011;3789;47.064;15.482;2023-02-08T02:04:07;50.53;;;27.03;;
7495;SDS011;3789;47.064;15.482;2023-02-08T02:06:36;34.33;;;18.90;;
7495;SDS011;3789;47.064;15.482;2023-02-08T02:11:59;26.67;;;17.37;;
7495;SDS011;3789;47.064;15.482;2023-02-08T02:14:27;29.00;;;19.70;;
7495;SDS011;3789;47.064;15.482;2023-02-08T02:16:55;30.00;;;18.40;;
7495;SDS011;3789;47.064;15.482;2023-02-08T02:19:36;31.33;;;18.37;;
7495;SDS011;3789;47.064;15.482;2023-02-08T02:28:12;33.80;;;19.40;;
7495;SDS011;3789;47.064;15.482;2023-02-08T02:48:13;25.73;;;16.77;;
7495;SDS011;3789;47.064;15.482;2023-02-08T02:57:26;25.40;;;15.93;;
7495;SDS011;3789;47.064;15.482;2023-02-08T03:00:00;28.23;;;16.80;;
7495;SDS011;3789;47.064;15.482;2023-02-08T03:02:36;20.13;;;14.03;;
7495;SDS011;3789;47.064;15.482;2023-02-08T03:05:08;25.80;;;16.33;;
7495;SDS011;3789;47.064;15.482;2023-02-08T03:19:53;26.77;;;16.50;;
7495;SDS011;3789;47.064;15.482;2023-02-08T03:22:30;20.30;;;15.90;;
7495;SDS011;3789;47.064;15.482;2023-02-08T03:25:16;25.27;;;15.67;;
7495;SDS011;3789;47.064;15.482;2023-02-08T03:28:14;20.07;;;16.67;;
7495;SDS011;3789;47.064;15.482;2023-02-08T03:34:01;26.00;;;16.40;;
7495;SDS011;3789;47.064;15.482;2023-02-08T03:36:52;27.80;;;16.87;;
7495;SDS011;3789;47.064;15.482;2023-02-08T03:39:38;21.20;;;15.53;;
7495;SDS011;3789;47.064;15.482;2023-02-08T03:42:14;27.27;;;17.33;;
7495;SDS011;3789;47.064;15.482;2023-02-08T03:45:01;21.27;;;15.77;;
7495;SDS011;3789;47.064;15.482;2023-02-08T03:47:37;20.53;;;15.60;;
7495;SDS011;3789;47.064;15.482;2023-02-08T03:50:37;22.23;;;15.73;;
7495;SDS011;3789;47.064;15.482;2023-02-08T03:53:16;28.90;;;17.57;;
7495;SDS011;3789;47.064;15.482;2023-02-08T03:55:51;40.10;;;20.43;;
7495;SDS011;3789;47.064;15.482;2023-02-08T04:01:45;41.23;;;21.27;;
7495;SDS011;3789;47.064;15.482;2023-02-08T04:04:20;33.07;;;19.47;;
7495;SDS011;3789;47.064;15.482;2023-02-08T04:06:51;40.37;;;22.70;;
7495;SDS011;3789;47.064;15.482;2023-02-08T04:09:21;36.33;;;21.43;;
7495;SDS011;3789;47.064;15.482;2023-02-08T04:11:50;40.97;;;23.47;;
7495;SDS011;3789;47.064;15.482;2023-02-08T04:14:19;36.03;;;20.87;;
7495;SDS011;3789;47.064;15.482;2023-02-08T04:16:49;33.73;;;20.03;;
7495;SDS011;3789;47.064;15.482;2023-02-08T04:19:16;30.83;;;18.70;;
7495;SDS011;3789;47.064;15.482;2023-02-08T04:21:55;29.17;;;18.83;;
7495;SDS011;3789;47.064;15.482;2023-02-08T04:24:24;31.90;;;19.67;;
7495;SDS011;3789;47.064;15.482;2023-02-08T04:26:56;32.30;;;19.87;;
7495;SDS011;3789;47.064;15.482;2023-02-08T04:29:23;29.27;;;17.97;;
7495;SDS011;3789;47.064;15.482;2023-02-08T04:31:54;29.80;;;18.50;;
7495;SDS011;3789;47.064;15.482;2023-02-08T04:34:23;30.53;;;18.30;;
7495;SDS011;3789;47.064;15.482;2023-02-08T04:36:51;30.03;;;18.97;;
7495;SDS011;3789;47.064;15.482;2023-02-08T04:39:21;30.43;;;18.03;;
7495;SDS011;3789;47.064;15.482;2023-02-08T04:41:51;35.10;;;20.20;;
7495;SDS011;3789;47.064;15.482;2023-02-08T04:44:20;35.20;;;20.50;;
7495;SDS011;3789;47.064;15.482;2023-02-08T04:46:50;29.93;;;19.37;;
7495;SDS011;3789;47.064;15.482;2023-02-08T04:49:19;24.53;;;17.10;;
7495;SDS011;3789;47.064;15.482;2023-02-08T04:51:49;27.20;;;16.33;;
7495;SDS011;3789;47.064;15.482;2023-02-08T04:54:26;28.53;;;16.87;;
7495;SDS011;3789;47.064;15.482;2023-02-08T04:56:54;24.60;;;16.27;;
7495;SDS011;3789;47.064;15.482;2023-02-08T04:59:25;23.47;;;15.77;;
7495;SDS011;3789;47.064;15.482;2023-02-08T05:01:55;23.23;;;15.97;;
7495;SDS011;3789;47.064;15.482;2023-02-08T05:04:30;26.90;;;15.57;;
7495;SDS011;3789;47.064;15.482;2023-02-08T05:06:58;23.77;;;16.43;;
7495;SDS011;3789;47.064;15.482;2023-02-08T05:09:29;21.67;;;16.07;;
7495;SDS011;3789;47.064;15.482;2023-02-08T05:11:58;22.00;;;14.60;;
7495;SDS011;3789;47.064;15.482;2023-02-08T05:14:34;22.73;;;14.33;;
7495;SDS011;3789;47.064;15.482;2023-02-08T05:17:05;20.90;;;15.23;;
7495;SDS011;3789;47.064;15.482;2023-02-08T05:19:42;20.37;;;14.53;;
7495;SDS011;3789;47.064;15.482;2023-02-08T05:22:14;21.13;;;14.77;;
7495;SDS011;3789;47.064;15.482;2023-02-08T05:24:42;21.67;;;14.30;;
7495;SDS011;3789;47.064;15.482;2023-02-08T05:27:09;25.53;;;14.57;;
7495;SDS011;3789;47.064;15.482;2023-02-08T05:29:37;21.60;;;13.27;;
7495;SDS011;3789;47.064;15.482;2023-02-08T05:32:04;22.70;;;14.33;;
7495;SDS011;3789;47.064;15.482;2023-02-08T05:34:31;24.07;;;14.73;;
7495;SDS011;3789;47.064;15.482;2023-02-08T05:36:59;17.40;;;13.23;;
7495;SDS011;3789;47.064;15.482;2023-02-08T05:39:26;25.20;;;14.13;;
7495;SDS011;3789;47.064;15.482;2023-02-08T05:41:53;21.27;;;15.47;;
7495;SDS011;3789;47.064;15.482;2023-02-08T05:44:20;19.73;;;14.47;;
7495;SDS011;3789;47.064;15.482;2023-02-08T05:46:47;22.53;;;14.97;;
7495;SDS011;3789;47.064;15.482;2023-02-08T05:49:15;21.50;;;15.50;;
7495;SDS011;3789;47.064;15.482;2023-02-08T05:51:42;23.20;;;15.40;;
7495;SDS011;3789;47.064;15.482;2023-02-08T05:54:10;20.87;;;14.83;;
7495;SDS011;3789;47.064;15.482;2023-02-08T05:56:37;19.30;;;14.63;;
7495;SDS011;3789;47.064;15.482;2023-02-08T05:59:04;20.53;;;14.13;;
7495;SDS011;3789;47.064;15.482;2023-02-08T06:01:31;23.10;;;14.50;;
7495;SDS011;3789;47.064;15.482;2023-02-08T06:03:59;20.77;;;14.53;;
7495;SDS011;3789;47.064;15.482;2023-02-08T06:06:26;20.30;;;14.70;;
7495;SDS011;3789;47.064;15.482;2023-02-08T06:08:54;19.03;;;12.87;;
7495;SDS011;3789;47.064;15.482;2023-02-08T06:11:21;24.50;;;16.50;;
7495;SDS011;3789;47.064;15.482;2023-02-08T06:13:49;27.00;;;18.30;;
7495;SDS011;3789;47.064;15.482;2023-02-08T06:16:16;28.23;;;16.77;;
7495;SDS011;3789;47.064;15.482;2023-02-08T06:18:45;27.50;;;16.73;;
7495;SDS011;3789;47.064;15.482;2023-02-08T06:21:13;24.20;;;15.57;;
7495;SDS011;3789;47.064;15.482;2023-02-08T06:23:40;27.60;;;17.40;;
7495;SDS011;3789;47.064;15.482;2023-02-08T06:26:08;27.80;;;17.33;;
7495;SDS011;3789;47.064;15.482;2023-02-08T06:28:35;25.53;;;16.60;;
7495;SDS011;3789;47.064;15.482;2023-02-08T06:31:03;29.63;;;17.40;;
7495;SDS011;3789;47.064;15.482;2023-02-08T06:33:30;30.20;;;17.90;;
7495;SDS011;3789;47.064;15.482;2023-02-08T06:35:57;30.90;;;18.40;;
7495;SDS011;3789;47.064;15.482;2023-02-08T06:38:25;31.53;;;19.13;;
7495;SDS011;3789;47.064;15.482;2023-02-08T06:40:52;35.47;;;18.53;;
7495;SDS011;3789;47.064;15.482;2023-02-08T06:43:19;32.33;;;18.73;;
7495;SDS011;3789;47.064;15.482;2023-02-08T06:45:46;32.00;;;18.07;;
7495;SDS011;3789;47.064;15.482;2023-02-08T06:48:13;27.37;;;18.77;;
7495;SDS011;3789;47.064;15.482;2023-02-08T06:50:41;30.87;;;18.50;;
7495;SDS011;3789;47.064;15.482;2023-02-08T06:53:09;30.67;;;19.00;;
7495;SDS011;3789;47.064;15.482;2023-02-08T06:55:36;32.70;;;20.70;;
7495;SDS011;3789;47.064;15.482;2023-02-08T06:58:04;34.13;;;19.10;;
7495;SDS011;3789;47.064;15.482;2023-02-08T07:00:32;31.03;;;18.80;;
7495;SDS011;3789;47.064;15.482;2023-02-08T07:03:00;29.57;;;19.47;;
7495;SDS011;3789;47.064;15.482;2023-02-08T07:05:27;36.27;;;20.73;;
7495;SDS011;3789;47.064;15.482;2023-02-08T07:07:54;35.40;;;18.23;;
7495;SDS011;3789;47.064;15.482;2023-02-08T07:10:21;28.33;;;18.13;;
7495;SDS011;3789;47.064;15.482;2023-02-08T07:12:49;28.03;;;17.80;;
7495;SDS011;3789;47.064;15.482;2023-02-08T07:15:16;25.43;;;16.33;;
7495;SDS011;3789;47.064;15.482;2023-02-08T07:17:44;22.87;;;14.50;;
7495;SDS011;3789;47.064;15.482;2023-02-08T07:20:12;24.43;;;13.97;;
7495;SDS011;3789;47.064;15.482;2023-02-08T07:22:39;23.33;;;13.50;;
7495;SDS011;3789;47.064;15.482;2023-02-08T07:25:07;23.60;;;12.97;;
7495;SDS011;3789;47.064;15.482;2023-02-08T07:27:35;23.97;;;13.70;;
7495;SDS011;3789;47.064;15.482;2023-02-08T07:30:03;20.73;;;13.17;;
7495;SDS011;3789;47.064;15.482;2023-02-08T07:32:31;19.00;;;12.50;;
7495;SDS011;3789;47.064;15.482;2023-02-08T07:35:00;23.03;;;13.33;;
7495;SDS011;3789;47.064;15.482;2023-02-08T07:37:27;18.53;;;12.33;;
7495;SDS011;3789;47.064;15.482;2023-02-08T07:39:55;18.60;;;12.67;;
7495;SDS011;3789;47.064;15.482;2023-02-08T07:42:22;21.77;;;13.77;;
7495;SDS011;3789;47.064;15.482;2023-02-08T07:44:49;22.80;;;13.37;;
7495;SDS011;3789;47.064;15.482;2023-02-08T07:47:16;20.17;;;13.13;;
7495;SDS011;3789;47.064;15.482;2023-02-08T07:49:44;21.13;;;12.93;;
7495;SDS011;3789;47.064;15.482;2023-02-08T07:52:11;19.33;;;12.93;;
7495;SDS011;3789;47.064;15.482;2023-02-08T07:54:38;20.37;;;13.60;;
7495;SDS011;3789;47.064;15.482;2023-02-08T07:57:05;22.43;;;12.63;;
7495;SDS011;3789;47.064;15.482;2023-02-08T07:59:34;22.43;;;12.37;;
7495;SDS011;3789;47.064;15.482;2023-02-08T08:02:01;18.87;;;12.97;;
7495;SDS011;3789;47.064;15.482;2023-02-08T08:04:28;19.03;;;11.77;;
7495;SDS011;3789;47.064;15.482;2023-02-08T08:06:55;21.87;;;14.20;;
7495;SDS011;3789;47.064;15.482;2023-02-08T08:09:23;23.17;;;13.37;;
7495;SDS011;3789;47.064;15.482;2023-02-08T08:11:50;20.40;;;13.60;;
7495;SDS011;3789;47.064;15.482;2023-02-08T08:14:17;19.57;;;12.73;;
7495;SDS011;3789;47.064;15.482;2023-02-08T08:16:44;20.33;;;13.17;;
7495;SDS011;3789;47.064;15.482;2023-02-08T08:19:11;23.77;;;13.87;;
7495;SDS011;3789;47.064;15.482;2023-02-08T08:21:38;18.43;;;11.80;;
7495;SDS011;3789;47.064;15.482;2023-02-08T08:24:06;16.10;;;11.93;;
7495;SDS011;3789;47.064;15.482;2023-02-08T08:26:33;17.53;;;11.70;;
7495;SDS011;3789;47.064;15.482;2023-02-08T08:29:01;18.30;;;11.90;;
7495;SDS011;3789;47.064;15.482;2023-02-08T08:31:28;19.43;;;12.93;;
7495;SDS011;3789;47.064;15.482;2023-02-08T08:33:56;18.80;;;12.33;;
7495;SDS011;3789;47.064;15.482;2023-02-08T08:36:23;19.47;;;11.60;;
7495;SDS011;3789;47.064;15.482;2023-02-08T08:38:50;21.80;;;12.13;;
7495;SDS011;3789;47.064;15.482;2023-02-08T08:41:18;17.07;;;12.40;;
7495;SDS011;3789;47.064;15.482;2023-02-08T08:43:48;18.47;;;12.43;;
7495;SDS011;3789;47.064;15.482;2023-02-08T08:46:16;21.10;;;12.53;;
7495;SDS011;3789;47.064;15.482;2023-02-08T08:48:43;20.90;;;13.60;;
7495;SDS011;3789;47.064;15.482;2023-02-08T08:51:11;17.30;;;11.83;;
7495;SDS011;3789;47.064;15.482;2023-02-08T08:53:39;21.37;;;14.07;;
7495;SDS011;3789;47.064;15.482;2023-02-08T08:56:06;26.43;;;16.37;;
7495;SDS011;3789;47.064;15.482;2023-02-08T08:58:34;21.57;;;13.93;;
7495;SDS011;3789;47.064;15.482;2023-02-08T09:01:01;23.33;;;14.90;;
7495;SDS011;3789;47.064;15.482;2023-02-08T09:03:29;20.67;;;14.10;;
7495;SDS011;3789;47.064;15.482;2023-02-08T09:05:56;24.40;;;13.20;;
7495;SDS011;3789;47.064;15.482;2023-02-08T09:08:23;21.57;;;13.73;;
7495;SDS011;3789;47.064;15.482;2023-02-08T09:10:50;20.93;;;13.90;;
7495;SDS011;3789;47.064;15.482;2023-02-08T09:13:17;22.93;;;14.63;;
7495;SDS011;3789;47.064;15.482;2023-02-08T09:15:46;21.13;;;13.20;;
7495;SDS011;3789;47.064;15.482;2023-02-08T09:18:14;20.27;;;12.60;;
7495;SDS011;3789;47.064;15.482;2023-02-08T09:20:42;21.17;;;13.40;;
7495;SDS011;3789;47.064;15.482;2023-02-08T09:23:09;19.57;;;13.80;;
7495;SDS011;3789;47.064;15.482;2023-02-08T09:25:37;19.27;;;12.40;;
7495;SDS011;3789;47.064;15.482;2023-02-08T09:28:04;21.87;;;12.80;;
7495;SDS011;3789;47.064;15.482;2023-02-08T09:30:32;17.17;;;12.40;;
7495;SDS011;3789;47.064;15.482;2023-02-08T09:33:00;18.33;;;11.37;;
7495;SDS011;3789;47.064;15.482;2023-02-08T09:35:27;18.63;;;11.73;;
7495;SDS011;3789;47.064;15.482;2023-02-08T09:37:54;54.47;;;19.27;;
7495;SDS011;3789;47.064;15.482;2023-02-08T09:40:24;20.00;;;12.47;;
7495;SDS011;3789;47.064;15.482;2023-02-08T09:43:01;17.67;;;11.87;;
7495;SDS011;3789;47.064;15.482;2023-02-08T09:46:04;21.47;;;12.87;;
7495;SDS011;3789;47.064;15.482;2023-02-08T09:48:38;39.80;;;14.00;;
7495;SDS011;3789;47.064;15.482;2023-02-08T09:51:13;20.17;;;12.80;;
7495;SDS011;3789;47.064;15.482;2023-02-08T09:53:48;19.27;;;12.90;;
7495;SDS011;3789;47.064;15.482;2023-02-08T09:56:19;20.73;;;12.87;;
7495;SDS011;3789;47.064;15.482;2023-02-08T09:58:53;20.90;;;13.27;;
7495;SDS011;3789;47.064;15.482;2023-02-08T10:01:29;17.37;;;12.47;;
7495;SDS011;3789;47.064;15.482;2023-02-08T10:04:14;17.60;;;11.87;;
7495;SDS011;3789;47.064;15.482;2023-02-08T10:07:03;18.90;;;12.40;;
7495;SDS011;3789;47.064;15.482;2023-02-08T10:09:30;19.33;;;11.90;;
7495;SDS011;3789;47.064;15.482;2023-02-08T10:12:18;18.77;;;12.33;;
7495;SDS011;3789;47.064;15.482;2023-02-08T10:15:38;18.13;;;12.17;;
7495;SDS011;3789;47.064;15.482;2023-02-08T10:18:19;19.93;;;13.10;;
7495;SDS011;3789;47.064;15.482;2023-02-08T10:26:46;19.17;;;11.57;;
7495;SDS011;3789;47.064;15.482;2023-02-08T10:32:05;18.00;;;12.13;;
7495;SDS011;3789;47.064;15.482;2023-02-08T10:34:42;19.60;;;12.17;;
7495;SDS011;3789;47.064;15.482;2023-02-08T10:37:14;18.33;;;11.57;;
7495;SDS011;3789;47.064;15.482;2023-02-08T10:39:45;18.27;;;11.83;;
7495;SDS011;3789;47.064;15.482;2023-02-08T10:42:15;17.53;;;12.17;;
7495;SDS011;3789;47.064;15.482;2023-02-08T10:45:00;19.27;;;12.17;;
7495;SDS011;3789;47.064;15.482;2023-02-08T10:47:51;18.50;;;12.20;;
7495;SDS011;3789;47.064;15.482;2023-02-08T10:52:57;18.63;;;12.00;;
7495;SDS011;3789;47.064;15.482;2023-02-08T10:55:24;19.63;;;12.47;;
7495;SDS011;3789;47.064;15.482;2023-02-08T10:57:53;18.07;;;12.43;;
7495;SDS011;3789;47.064;15.482;2023-02-08T11:00:28;17.20;;;11.43;;
7495;SDS011;3789;47.064;15.482;2023-02-08T11:03:07;19.63;;;12.47;;
7495;SDS011;3789;47.064;15.482;2023-02-08T11:05:49;16.57;;;11.43;;
7495;SDS011;3789;47.064;15.482;2023-02-08T11:08:19;15.03;;;11.10;;
7495;SDS011;3789;47.064;15.482;2023-02-08T11:11:03;16.83;;;11.40;;
7495;SDS011;3789;47.064;15.482;2023-02-08T11:16:09;18.83;;;10.23;;
7495;SDS011;3789;47.064;15.482;2023-02-08T11:18:50;18.03;;;10.53;;
7495;SDS011;3789;47.064;15.482;2023-02-08T11:21:25;14.30;;;10.03;;
7495;SDS011;3789;47.064;15.482;2023-02-08T11:23:59;16.10;;;10.10;;
7495;SDS011;3789;47.064;15.482;2023-02-08T11:29:18;17.20;;;10.57;;
7495;SDS011;3789;47.064;15.482;2023-02-08T11:37:01;16.27;;;10.57;;
7495;SDS011;3789;47.064;15.482;2023-02-08T11:39:33;13.70;;;9.33;;
7495;SDS011;3789;47.064;15.482;2023-02-08T11:42:05;16.50;;;10.80;;
7495;SDS011;3789;47.064;15.482;2023-02-08T11:44:34;15.63;;;10.03;;
7495;SDS011;3789;47.064;15.482;2023-02-08T11:47:07;15.20;;;9.93;;
7495;SDS011;3789;47.064;15.482;2023-02-08T11:49:40;17.90;;;10.70;;
7495;SDS011;3789;47.064;15.482;2023-02-08T11:52:19;15.10;;;9.80;;
7495;SDS011;3789;47.064;15.482;2023-02-08T11:54:51;22.37;;;11.97;;
7495;SDS011;3789;47.064;15.482;2023-02-08T11:59:48;17.07;;;10.33;;
7495;SDS011;3789;47.064;15.482;2023-02-08T12:02:51;14.80;;;10.43;;
7495;SDS011;3789;47.064;15.482;2023-02-08T12:05:12;14.50;;;10.30;;
7495;SDS011;3789;47.064;15.482;2023-02-08T12:10:40;13.20;;;10.20;;
7495;SDS011;3789;47.064;15.482;2023-02-08T12:13:33;15.30;;;9.33;;
7495;SDS011;3789;47.064;15.482;2023-02-08T12:21:56;16.40;;;10.30;;
7495;SDS011;3789;47.064;15.482;2023-02-08T12:30:49;13.63;;;8.80;;
7495;SDS011;3789;47.064;15.482;2023-02-08T12:48:05;16.63;;;8.73;;
7495;SDS011;3789;47.064;15.482;2023-02-08T12:53:42;12.87;;;8.17;;
7495;SDS011;3789;47.064;15.482;2023-02-08T12:56:19;13.73;;;8.57;;
7495;SDS011;3789;47.064;15.482;2023-02-08T12:58:52;10.50;;;7.30;;
7495;SDS011;3789;47.064;15.482;2023-02-08T13:01:40;12.57;;;8.10;;
7495;SDS011;3789;47.064;15.482;2023-02-08T13:06:58;12.20;;;8.33;;
7495;SDS011;3789;47.064;15.482;2023-02-08T13:09:42;11.23;;;7.87;;
7495;SDS011;3789;47.064;15.482;2023-02-08T13:12:19;10.77;;;8.17;;
7495;SDS011;3789;47.064;15.482;2023-02-08T13:17:56;10.23;;;6.93;;
7495;SDS011;3789;47.064;15.482;2023-02-08T13:23:02;11.57;;;8.03;;
7495;SDS011;3789;47.064;15.482;2023-02-08T13:25:57;12.10;;;8.50;;
7495;SDS011;3789;47.064;15.482;2023-02-08T13:28:28;13.37;;;9.03;;
7495;SDS011;3789;47.064;15.482;2023-02-08T13:33:29;10.23;;;7.53;;
7495;SDS011;3789;47.064;15.482;2023-02-08T13:36:29;14.50;;;8.13;;
7495;SDS011;3789;47.064;15.482;2023-02-08T13:39:00;11.53;;;8.30;;
7495;SDS011;3789;47.064;15.482;2023-02-08T13:41:31;12.67;;;8.23;;
7495;SDS011;3789;47.064;15.482;2023-02-08T13:44:06;11.17;;;7.83;;
7495;SDS011;3789;47.064;15.482;2023-02-08T13:46:43;10.23;;;7.57;;
7495;SDS011;3789;47.064;15.482;2023-02-08T13:52:06;11.67;;;7.27;;
7495;SDS011;3789;47.064;15.482;2023-02-08T13:54:35;11.80;;;7.83;;
7495;SDS011;3789;47.064;15.482;2023-02-08T13:57:03;11.63;;;7.43;;
7495;SDS011;3789;47.064;15.482;2023-02-08T14:03:19;11.67;;;7.70;;
7495;SDS011;3789;47.064;15.482;2023-02-08T14:08:43;11.60;;;8.07;;
7495;SDS011;3789;47.064;15.482;2023-02-08T14:14:12;9.83;;;7.20;;
7495;SDS011;3789;47.064;15.482;2023-02-08T14:16:43;11.70;;;7.37;;
7495;SDS011;3789;47.064;15.482;2023-02-08T14:19:32;11.93;;;7.30;;
7495;SDS011;3789;47.064;15.482;2023-02-08T14:22:05;8.47;;;6.13;;
7495;SDS011;3789;47.064;15.482;2023-02-08T14:24:40;9.77;;;7.27;;
7495;SDS011;3789;47.064;15.482;2023-02-08T14:27:16;9.23;;;7.20;;
7495;SDS011;3789;47.064;15.482;2023-02-08T14:29:59;12.23;;;7.67;;
7495;SDS011;3789;47.064;15.482;2023-02-08T14:32:30;9.97;;;6.20;;
7495;SDS011;3789;47.064;15.482;2023-02-08T14:35:04;9.37;;;6.67;;
7495;SDS011;3789;47.064;15.482;2023-02-08T14:37:35;8.63;;;6.03;;
7495;SDS011;3789;47.064;15.482;2023-02-08T14:42:54;9.30;;;6.40;;
7495;SDS011;3789;47.064;15.482;2023-02-08T14:45:35;8.97;;;6.37;;
7495;SDS011;3789;47.064;15.482;2023-02-08T14:50:38;8.13;;;6.03;;
7495;SDS011;3789;47.064;15.482;2023-02-08T14:54:02;7.70;;;6.50;;
7495;SDS011;3789;47.064;15.482;2023-02-08T14:59:04;8.47;;;5.87;;
7495;SDS011;3789;47.064;15.482;2023-02-08T15:01:44;8.47;;;6.40;;
7495;SDS011;3789;47.064;15.482;2023-02-08T15:04:15;8.33;;;5.93;;
7495;SDS011;3789;47.064;15.482;2023-02-08T15:09:34;6.40;;;5.30;;
7495;SDS011;3789;47.064;15.482;2023-02-08T15:12:06;10.47;;;6.77;;
7495;SDS011;3789;47.064;15.482;2023-02-08T15:14:43;9.70;;;5.93;;
7495;SDS011;3789;47.064;15.482;2023-02-08T15:17:18;7.10;;;5.80;;
7495;SDS011;3789;47.064;15.482;2023-02-08T15:19:46;8.63;;;6.67;;
7495;SDS011;3789;47.064;15.482;2023-02-08T15:24:50;10.93;;;6.87;;
7495;SDS011;3789;47.064;15.482;2023-02-08T15:27:20;9.07;;;6.57;;
7495;SDS011;3789;47.064;15.482;2023-02-08T15:29:53;9.93;;;6.43;;
7495;SDS011;3789;47.064;15.482;2023-02-08T15:32:21;9.33;;;6.60;;
7495;SDS011;3789;47.064;15.482;2023-02-08T15:34:57;9.53;;;6.27;;
7495;SDS011;3789;47.064;15.482;2023-02-08T15:37:31;10.10;;;6.87;;
7495;SDS011;3789;47.064;15.482;2023-02-08T15:40:00;11.83;;;7.40;;
7495;SDS011;3789;47.064;15.482;2023-02-08T15:42:30;10.37;;;7.17;;
7495;SDS011;3789;47.064;15.482;2023-02-08T15:44:59;12.13;;;7.30;;
7495;SDS011;3789;47.064;15.482;2023-02-08T15:47:32;8.40;;;6.67;;
7495;SDS011;3789;47.064;15.482;2023-02-08T15:50:02;11.53;;;6.10;;
7495;SDS011;3789;47.064;15.482;2023-02-08T15:52:34;9.80;;;7.00;;
7495;SDS011;3789;47.064;15.482;2023-02-08T15:55:05;11.67;;;7.30;;
7495;SDS011;3789;47.064;15.482;2023-02-08T15:57:35;9.13;;;6.90;;
7495;SDS011;3789;47.064;15.482;2023-02-08T16:00:32;9.17;;;6.40;;
7495;SDS011;3789;47.064;15.482;2023-02-08T16:03:00;8.83;;;6.43;;
7495;SDS011;3789;47.064;15.482;2023-02-08T16:05:34;10.13;;;7.27;;
7495;SDS011;3789;47.064;15.482;2023-02-08T16:08:02;10.70;;;7.20;;
7495;SDS011;3789;47.064;15.482;2023-02-08T16:10:34;13.80;;;8.17;;
7495;SDS011;3789;47.064;15.482;2023-02-08T16:16:36;12.60;;;8.17;;
7495;SDS011;3789;47.064;15.482;2023-02-08T16:18:59;14.10;;;9.17;;
7495;SDS011;3789;47.064;15.482;2023-02-08T16:21:38;14.57;;;9.47;;
7495;SDS011;3789;47.064;15.482;2023-02-08T16:26:41;14.03;;;9.20;;
7495;SDS011;3789;47.064;15.482;2023-02-08T16:29:19;14.43;;;8.77;;
7495;SDS011;3789;47.064;15.482;2023-02-08T16:31:57;11.57;;;8.17;;
7495;SDS011;3789;47.064;15.482;2023-02-08T16:34:26;11.90;;;8.87;;
7495;SDS011;3789;47.064;15.482;2023-02-08T16:36:55;13.67;;;8.50;;
7495;SDS011;3789;47.064;15.482;2023-02-08T16:39:49;12.50;;;9.00;;
7495;SDS011;3789;47.064;15.482;2023-02-08T16:47:43;12.53;;;8.77;;
7495;SDS011;3789;47.064;15.482;2023-02-08T16:50:22;12.87;;;8.77;;
7495;SDS011;3789;47.064;15.482;2023-02-08T16:53:00;14.30;;;8.23;;
7495;SDS011;3789;47.064;15.482;2023-02-08T16:55:31;13.87;;;9.33;;
7495;SDS011;3789;47.064;15.482;2023-02-08T16:58:01;14.10;;;10.10;;
7495;SDS011;3789;47.064;15.482;2023-02-08T17:00:33;14.07;;;10.00;;
7495;SDS011;3789;47.064;15.482;2023-02-08T17:03:01;14.83;;;9.90;;
7495;SDS011;3789;47.064;15.482;2023-02-08T17:05:29;15.77;;;9.00;;
7495;SDS011;3789;47.064;15.482;2023-02-08T17:08:00;13.10;;;9.73;;
7495;SDS011;3789;47.064;15.482;2023-02-08T17:10:34;15.27;;;10.23;;
7495;SDS011;3789;47.064;15.482;2023-02-08T17:13:02;15.57;;;9.47;;
7495;SDS011;3789;47.064;15.482;2023-02-08T17:15:46;14.47;;;9.77;;
7495;SDS011;3789;47.064;15.482;2023-02-08T17:18:14;14.17;;;9.70;;
7495;SDS011;3789;47.064;15.482;2023-02-08T17:20:42;18.57;;;10.97;;
7495;SDS011;3789;47.064;15.482;2023-02-08T17:23:10;16.30;;;11.03;;
7495;SDS011;3789;47.064;15.482;2023-02-08T17:25:41;14.03;;;9.77;;
7495;SDS011;3789;47.064;15.482;2023-02-08T17:28:16;18.07;;;12.03;;
7495;SDS011;3789;47.064;15.482;2023-02-08T17:30:45;14.67;;;10.53;;
7495;SDS011;3789;47.064;15.482;2023-02-08T17:33:14;21.03;;;11.43;;
7495;SDS011;3789;47.064;15.482;2023-02-08T17:35:45;14.07;;;9.77;;
7495;SDS011;3789;47.064;15.482;2023-02-08T17:38:18;16.07;;;10.67;;
7495;SDS011;3789;47.064;15.482;2023-02-08T17:40:47;15.63;;;11.70;;
7495;SDS011;3789;47.064;15.482;2023-02-08T17:43:14;17.67;;;10.37;;
7495;SDS011;3789;47.064;15.482;2023-02-08T17:45:42;15.23;;;10.47;;